createdAt,value
2023-02-26T00:01:15.435Z,91.70
2023-02-26T00:03:42.859Z,91.70
2023-02-26T00:06:10.343Z,91.80
2023-02-26T00:08:37.775Z,91.70
2023-02-26T00:11:10.716Z,91.80
2023-02-26T00:13:40.097Z,91.70
2023-02-26T00:16:34.332Z,91.70
2023-02-26T00:19:04.611Z,91.90
2023-02-26T00:21:33.399Z,92.00
2023-02-26T00:24:02.257Z,92.00
2023-02-26T00:26:32.030Z,92.10
2023-02-26T00:28:59.861Z,92.00
2023-02-26T00:31:27.959Z,92.20
2023-02-26T00:33:57.983Z,92.30
2023-02-26T00:36:48.276Z,92.40
2023-02-26T00:39:30.641Z,92.60
2023-02-26T00:41:58.083Z,92.50
2023-02-26T00:44:25.768Z,92.70
2023-02-26T00:47:17.989Z,92.60
2023-02-26T00:49:54.036Z,92.70
2023-02-26T00:52:32.373Z,92.90
2023-02-26T00:54:59.604Z,92.60
2023-02-26T00:57:26.771Z,92.60
2023-02-26T00:59:53.903Z,92.70
2023-02-26T01:02:21.116Z,92.70
2023-02-26T01:04:48.652Z,92.70
2023-02-26T01:07:17.974Z,92.80
2023-02-26T01:09:45.492Z,92.60
2023-02-26T01:12:13.464Z,92.80
2023-02-26T01:14:41.572Z,92.90
2023-02-26T01:17:28.009Z,92.70
2023-02-26T01:20:16.863Z,92.90
2023-02-26T01:23:07.327Z,92.90
2023-02-26T01:25:47.452Z,92.80
2023-02-26T01:28:15.388Z,92.80
2023-02-26T01:30:43.209Z,92.70
2023-02-26T01:33:25.109Z,92.60
2023-02-26T01:36:14.116Z,92.60
2023-02-26T01:39:06.472Z,92.70
2023-02-26T01:41:39.697Z,92.80
2023-02-26T01:44:34.639Z,92.80
2023-02-26T01:47:17.206Z,92.90
2023-02-26T01:49:44.783Z,92.70
2023-02-26T01:52:49.328Z,93.00
2023-02-26T01:55:22.425Z,92.60
2023-02-26T01:57:52.457Z,92.50
2023-02-26T02:00:20.885Z,92.50
2023-02-26T02:02:49.981Z,92.40
2023-02-26T02:05:27.547Z,92.40
2023-02-26T02:07:56.885Z,92.50
2023-02-26T02:10:25.576Z,92.50
2023-02-26T02:13:14.126Z,92.30
2023-02-26T02:16:12.079Z,92.40
2023-02-26T02:18:49.937Z,92.40
2023-02-26T02:21:47.909Z,92.50
2023-02-26T02:24:38.326Z,92.60
2023-02-26T02:27:19.950Z,92.60
2023-02-26T02:30:02.934Z,92.70
2023-02-26T02:33:00.791Z,92.60
2023-02-26T02:35:37.895Z,92.70
2023-02-26T02:38:11.640Z,92.60
2023-02-26T02:40:48.153Z,92.60
2023-02-26T02:43:25.995Z,92.60
2023-02-26T02:46:09.099Z,92.50
2023-02-26T02:48:45.308Z,92.50
2023-02-26T02:51:23.903Z,92.60
2023-02-26T02:54:26.754Z,92.90
2023-02-26T02:57:27.732Z,92.60
2023-02-26T02:59:59.526Z,92.40
2023-02-26T03:02:33.769Z,92.60
2023-02-26T03:05:00.816Z,92.60
2023-02-26T03:07:33.480Z,92.60
2023-02-26T03:10:00.993Z,92.50
2023-02-26T03:12:32.092Z,92.70
2023-02-26T03:15:00.210Z,92.60
2023-02-26T03:17:32.895Z,92.70
2023-02-26T03:20:20.206Z,92.50
2023-02-26T03:23:06.219Z,92.20
2023-02-26T03:25:43.786Z,92.30
2023-02-26T03:28:31.942Z,92.40
2023-02-26T03:31:04.029Z,92.30
2023-02-26T03:33:54.845Z,92.30
2023-02-26T03:36:28.563Z,92.70
2023-02-26T03:39:23.461Z,92.40
2023-02-26T03:42:33.208Z,92.40
2023-02-26T03:45:11.549Z,92.20
2023-02-26T03:47:42.840Z,92.40
2023-02-26T03:50:40.452Z,92.40
2023-02-26T03:54:01.438Z,92.60
2023-02-26T03:56:37.848Z,92.50
2023-02-26T03:59:05.211Z,92.60
2023-02-26T04:02:18.974Z,92.60
2023-02-26T04:04:59.407Z,92.70
2023-02-26T04:07:26.871Z,92.80
2023-02-26T04:09:53.954Z,93.00
2023-02-26T04:12:27.895Z,93.10
2023-02-26T04:14:57.269Z,93.00
2023-02-26T04:17:25.637Z,93.10
2023-02-26T04:19:52.701Z,93.40
2023-02-26T04:22:19.929Z,93.40
2023-02-26T04:24:47.101Z,93.20
2023-02-26T04:27:15.315Z,93.40
2023-02-26T04:29:42.443Z,93.40
2023-02-26T04:32:09.655Z,93.60
2023-02-26T04:34:36.805Z,94.00
2023-02-26T04:37:04.815Z,94.20
2023-02-26T04:39:31.893Z,94.20
2023-02-26T04:41:59.031Z,94.30
2023-02-26T04:44:26.207Z,94.40
2023-02-26T04:46:53.388Z,94.60
2023-02-26T04:49:20.828Z,95.00
2023-02-26T04:51:47.989Z,95.10
2023-02-26T04:54:16.552Z,95.10
2023-02-26T04:56:43.616Z,95.30
2023-02-26T04:59:10.868Z,95.40
2023-02-26T05:01:38.099Z,95.30
2023-02-26T05:04:08.202Z,95.40
2023-02-26T05:06:35.433Z,95.40
2023-02-26T05:09:02.531Z,95.40
2023-02-26T05:11:30.973Z,95.60
2023-02-26T05:13:58.077Z,95.60
2023-02-26T05:16:25.608Z,95.70
2023-02-26T05:18:53.292Z,95.70
2023-02-26T05:21:22.505Z,95.60
2023-02-26T05:23:50.532Z,95.50
2023-02-26T05:26:17.640Z,95.80
2023-02-26T05:28:45.880Z,95.80
2023-02-26T05:31:13.936Z,95.70
2023-02-26T05:33:41.627Z,95.90
2023-02-26T05:36:09.293Z,95.90
2023-02-26T05:38:36.367Z,96.10
2023-02-26T05:41:03.554Z,95.90
2023-02-26T05:43:31.125Z,96.00
2023-02-26T05:45:58.423Z,96.00
2023-02-26T05:48:25.558Z,96.20
2023-02-26T05:50:52.870Z,96.30
2023-02-26T05:53:20.094Z,96.60
2023-02-26T05:55:47.165Z,96.90
2023-02-26T05:58:14.662Z,96.70
2023-02-26T06:00:41.769Z,97.00
2023-02-26T06:03:08.976Z,97.00
2023-02-26T06:05:36.369Z,97.20
2023-02-26T06:08:05.568Z,97.00
2023-02-26T06:10:33.156Z,96.70
2023-02-26T06:13:00.354Z,96.90
2023-02-26T06:15:27.489Z,96.90
2023-02-26T06:17:54.535Z,96.90
2023-02-26T06:20:21.643Z,97.10
2023-02-26T06:22:48.741Z,96.90
2023-02-26T06:25:16.502Z,97.20
2023-02-26T06:27:43.662Z,97.10
2023-02-26T06:30:11.689Z,97.20
2023-02-26T06:32:38.752Z,97.60
2023-02-26T06:35:06.946Z,97.40
2023-02-26T06:37:34.002Z,97.30
2023-02-26T06:40:01.121Z,97.10
2023-02-26T06:42:29.298Z,97.10
2023-02-26T06:44:57.793Z,97.00
2023-02-26T06:47:24.997Z,96.80
2023-02-26T06:49:52.383Z,96.80
2023-02-26T06:52:19.847Z,97.10
2023-02-26T06:54:46.898Z,96.80
2023-02-26T06:57:13.956Z,96.90
2023-02-26T06:59:41.091Z,97.00
2023-02-26T07:02:11.389Z,96.90
2023-02-26T07:04:38.431Z,96.80
2023-02-26T07:07:05.505Z,96.90
2023-02-26T07:09:32.592Z,96.70
2023-02-26T07:11:59.639Z,96.80
2023-02-26T07:14:26.941Z,96.80
2023-02-26T07:16:54.097Z,96.90
2023-02-26T07:19:21.569Z,97.10
2023-02-26T07:21:49.087Z,96.80
2023-02-26T07:24:16.350Z,96.60
2023-02-26T07:26:43.451Z,96.90
2023-02-26T07:29:10.533Z,96.40
2023-02-26T07:31:37.667Z,96.20
2023-02-26T07:34:04.797Z,96.20
2023-02-26T07:36:31.906Z,95.90
2023-02-26T07:38:58.996Z,95.90
2023-02-26T07:41:26.080Z,95.80
2023-02-26T07:43:53.119Z,95.50
2023-02-26T07:46:20.238Z,95.10
2023-02-26T07:48:47.487Z,94.70
2023-02-26T07:51:14.646Z,95.00
2023-02-26T07:53:42.005Z,94.70
2023-02-26T07:56:09.921Z,94.40
2023-02-26T07:58:37.184Z,94.10
2023-02-26T08:01:04.476Z,94.10
2023-02-26T08:03:32.337Z,93.70
2023-02-26T08:06:03.087Z,94.00
2023-02-26T08:08:30.177Z,93.80
2023-02-26T08:11:00.004Z,93.80
2023-02-26T08:13:27.369Z,93.60
2023-02-26T08:15:54.512Z,93.40
2023-02-26T08:18:21.724Z,93.00
2023-02-26T08:20:52.312Z,92.90
2023-02-26T08:23:19.755Z,92.20
2023-02-26T08:25:47.341Z,92.20
2023-02-26T08:28:14.889Z,92.00
2023-02-26T08:30:41.950Z,91.70
2023-02-26T08:33:09.011Z,91.60
2023-02-26T08:35:36.029Z,91.20
2023-02-26T08:38:03.165Z,91.10
2023-02-26T08:40:30.328Z,90.90
2023-02-26T08:42:59.767Z,91.10
2023-02-26T08:45:27.248Z,91.10
2023-02-26T08:47:57.254Z,91.10
2023-02-26T08:50:25.964Z,90.90
2023-02-26T08:52:55.530Z,90.90
2023-02-26T08:55:23.097Z,90.80
2023-02-26T08:57:50.138Z,90.70
2023-02-26T09:00:18.797Z,90.90
2023-02-26T09:02:46.447Z,90.60
2023-02-26T09:05:15.292Z,90.50
2023-02-26T09:07:43.902Z,90.50
2023-02-26T09:10:12.091Z,90.30
2023-02-26T09:12:39.178Z,90.30
2023-02-26T09:15:08.079Z,90.30
2023-02-26T09:17:35.563Z,90.30
2023-02-26T09:20:03.508Z,90.40
2023-02-26T09:22:31.117Z,90.40
2023-02-26T09:24:58.214Z,90.50
2023-02-26T09:27:25.355Z,90.50
2023-02-26T09:29:52.585Z,89.70
2023-02-26T09:32:20.610Z,89.80
2023-02-26T09:34:47.915Z,89.40
2023-02-26T09:37:15.040Z,89.40
2023-02-26T09:39:42.097Z,89.30
2023-02-26T09:42:27.812Z,88.90
2023-02-26T09:45:00.310Z,87.80
2023-02-26T09:47:46.815Z,87.80
2023-02-26T09:50:24.348Z,87.60
2023-02-26T09:52:55.804Z,87.00
2023-02-26T09:55:34.865Z,87.00
2023-02-26T09:58:05.356Z,86.10
2023-02-26T10:00:45.754Z,86.40
2023-02-26T10:03:13.109Z,86.60
2023-02-26T10:05:43.377Z,85.60
2023-02-26T10:08:17.631Z,85.50
2023-02-26T10:10:51.497Z,85.50
2023-02-26T10:13:56.001Z,84.70
2023-02-26T10:16:29.971Z,84.80
2023-02-26T10:19:07.404Z,84.40
2023-02-26T10:21:51.769Z,84.10
2023-02-26T10:24:21.557Z,84.40
2023-02-26T10:27:01.581Z,83.80
2023-02-26T10:29:44.002Z,84.60
2023-02-26T10:32:52.650Z,84.80
2023-02-26T10:35:22.568Z,84.40
2023-02-26T10:38:02.882Z,84.50
2023-02-26T10:40:42.564Z,84.50
2023-02-26T10:43:35.552Z,84.90
2023-02-26T10:46:32.662Z,85.90
2023-02-26T10:49:05.664Z,86.10
2023-02-26T10:51:37.811Z,87.10
2023-02-26T10:54:31.527Z,87.10
2023-02-26T10:56:58.765Z,86.60
2023-02-26T10:59:27.132Z,87.30
2023-02-26T11:01:55.161Z,87.30
2023-02-26T11:04:26.347Z,88.10
2023-02-26T11:07:05.116Z,88.20
2023-02-26T11:09:34.346Z,88.70
2023-02-26T11:12:18.090Z,88.20
2023-02-26T11:14:47.762Z,88.90
2023-02-26T11:17:28.231Z,88.90
2023-02-26T11:20:06.036Z,89.20
2023-02-26T11:22:36.783Z,89.00
2023-02-26T11:25:05.638Z,89.90
2023-02-26T11:27:38.235Z,90.40
2023-02-26T11:30:15.535Z,90.50
2023-02-26T11:32:45.619Z,90.70
2023-02-26T11:35:15.463Z,90.90
2023-02-26T11:37:48.738Z,90.90
2023-02-26T11:40:24.526Z,90.60
2023-02-26T11:42:55.910Z,90.60
2023-02-26T11:45:26.597Z,90.70
2023-02-26T11:48:04.513Z,90.60
2023-02-26T11:50:46.540Z,90.50
2023-02-26T11:53:21.968Z,90.40
2023-02-26T11:55:53.851Z,90.50
2023-02-26T11:58:24.741Z,90.90
2023-02-26T12:01:00.151Z,90.70
2023-02-26T12:03:31.884Z,91.10
2023-02-26T12:06:01.430Z,90.50
2023-02-26T12:08:38.664Z,90.50
2023-02-26T12:11:45.133Z,90.60
2023-02-26T12:14:19.707Z,90.20
2023-02-26T12:16:50.110Z,90.10
2023-02-26T12:19:46.871Z,90.30
2023-02-26T12:22:32.928Z,90.40
2023-02-26T12:25:09.502Z,90.30
2023-02-26T12:27:43.343Z,90.60
2023-02-26T12:30:36.633Z,90.90
2023-02-26T12:33:26.387Z,91.00
2023-02-26T12:36:17.107Z,90.90
2023-02-26T12:38:59.344Z,91.00
2023-02-26T12:42:11.145Z,90.70
2023-02-26T12:45:06.663Z,90.50
2023-02-26T12:47:34.166Z,90.60
2023-02-26T12:50:21.031Z,90.60
2023-02-26T12:53:14.617Z,90.50
2023-02-26T12:56:14.264Z,90.80
2023-02-26T12:58:47.638Z,91.20
2023-02-26T13:01:28.466Z,91.50
2023-02-26T13:04:10.470Z,92.00
2023-02-26T13:07:16.659Z,92.20
2023-02-26T13:10:06.163Z,92.40
2023-02-26T13:12:39.244Z,92.40
2023-02-26T13:15:15.820Z,92.30
2023-02-26T13:18:08.676Z,92.30
2023-02-26T13:20:39.381Z,92.40
2023-02-26T13:24:06.037Z,92.30
2023-02-26T13:26:36.132Z,92.10
2023-02-26T13:29:17.036Z,91.90
2023-02-26T13:32:07.474Z,92.10
2023-02-26T13:34:39.118Z,92.10
2023-02-26T13:37:09.660Z,91.90
2023-02-26T13:39:45.383Z,91.70
2023-02-26T13:42:37.413Z,91.60
2023-02-26T13:45:32.712Z,91.60
2023-02-26T13:48:15.756Z,91.20
2023-02-26T13:50:57.490Z,91.10
2023-02-26T13:53:31.327Z,91.10
2023-02-26T13:56:11.662Z,91.10
2023-02-26T13:58:45.376Z,91.20
2023-02-26T14:01:27.841Z,91.40
2023-02-26T14:04:20.356Z,91.40
2023-02-26T14:06:51.733Z,91.50
2023-02-26T14:09:22.200Z,91.20
2023-02-26T14:11:55.992Z,91.20
2023-02-26T14:14:23.764Z,91.20
2023-02-26T14:17:04.561Z,91.30
2023-02-26T14:19:44.734Z,91.20
2023-02-26T14:22:35.580Z,91.30
2023-02-26T14:25:23.356Z,91.10
2023-02-26T14:27:51.427Z,91.00
2023-02-26T14:30:31.487Z,91.10
2023-02-26T14:33:05.568Z,90.80
2023-02-26T14:35:46.733Z,90.80
2023-02-26T14:38:25.413Z,90.70
2023-02-26T14:41:05.946Z,90.70
2023-02-26T14:43:38.359Z,90.70
2023-02-26T14:46:07.694Z,90.70
2023-02-26T14:48:36.625Z,90.70
2023-02-26T14:51:07.200Z,90.80
2023-02-26T14:53:40.695Z,90.80
2023-02-26T14:56:23.447Z,90.90
2023-02-26T14:59:19.423Z,90.80
2023-02-26T15:02:06.605Z,90.90
2023-02-26T15:05:06.198Z,91.00
2023-02-26T15:07:54.931Z,90.90
2023-02-26T15:11:01.563Z,91.00
2023-02-26T15:13:47.061Z,91.00
2023-02-26T15:16:42.828Z,91.10
2023-02-26T15:19:31.885Z,91.00
2023-02-26T15:22:28.369Z,91.30
2023-02-26T15:24:58.479Z,91.40
2023-02-26T15:27:31.235Z,91.20
2023-02-26T15:30:01.420Z,91.40
2023-02-26T15:32:32.161Z,91.40
2023-02-26T15:35:09.409Z,91.50
2023-02-26T15:37:38.931Z,91.50
2023-02-26T15:40:08.263Z,91.70
2023-02-26T15:42:42.716Z,91.80
2023-02-26T15:45:27.669Z,92.00
2023-02-26T15:48:01.106Z,91.90
2023-02-26T15:50:33.781Z,91.80
2023-02-26T15:53:04.488Z,92.00
2023-02-26T15:55:37.592Z,92.00
2023-02-26T15:58:07.303Z,92.00
2023-02-26T16:00:37.881Z,92.00
2023-02-26T16:03:06.086Z,92.00
2023-02-26T16:05:37.271Z,92.10
2023-02-26T16:08:06.466Z,92.10
2023-02-26T16:10:39.554Z,92.20
2023-02-26T16:13:11.764Z,92.20
2023-02-26T16:15:41.075Z,92.20
2023-02-26T16:18:17.265Z,92.00
2023-02-26T16:20:50.366Z,91.90
2023-02-26T16:23:38.329Z,91.30
2023-02-26T16:26:11.164Z,91.00
2023-02-26T16:28:46.665Z,90.70
2023-02-26T16:31:25.935Z,90.00
2023-02-26T16:34:00.971Z,88.10
2023-02-26T16:36:33.917Z,88.00
2023-02-26T16:39:08.510Z,88.10
2023-02-26T16:41:40.877Z,87.10
2023-02-26T16:44:31.248Z,86.10
2023-02-26T16:47:01.737Z,86.30
2023-02-26T16:49:38.874Z,86.20
2023-02-26T16:52:06.997Z,85.80
2023-02-26T16:54:42.985Z,85.80
2023-02-26T16:57:35.171Z,85.50
2023-02-26T17:00:10.129Z,85.60
2023-02-26T17:02:42.197Z,85.50
2023-02-26T17:05:22.585Z,85.40
2023-02-26T17:07:58.629Z,85.10
2023-02-26T17:10:55.252Z,85.30
2023-02-26T17:13:26.995Z,85.40
2023-02-26T17:15:59.866Z,85.40
2023-02-26T17:18:31.421Z,85.70
2023-02-26T17:21:04.873Z,85.80
2023-02-26T17:23:37.648Z,86.10
2023-02-26T17:26:07.299Z,85.90
2023-02-26T17:28:41.972Z,86.50
2023-02-26T17:31:13.324Z,86.30
2023-02-26T17:33:44.046Z,86.50
2023-02-26T17:36:19.263Z,86.60
2023-02-26T17:38:49.218Z,86.90
2023-02-26T17:41:20.954Z,86.90
2023-02-26T17:43:49.241Z,87.00
2023-02-26T17:46:19.043Z,87.10
2023-02-26T17:48:48.767Z,87.20
2023-02-26T17:51:17.310Z,87.30
2023-02-26T17:53:47.285Z,87.70
2023-02-26T17:56:37.535Z,87.70
2023-02-26T17:59:08.146Z,88.20
2023-02-26T18:01:37.863Z,88.70
2023-02-26T18:04:06.896Z,88.50
2023-02-26T18:06:40.852Z,88.90
2023-02-26T18:09:12.534Z,89.10
2023-02-26T18:11:43.680Z,89.20
2023-02-26T18:14:11.868Z,89.60
2023-02-26T18:16:43.011Z,90.10
2023-02-26T18:19:15.744Z,90.30
2023-02-26T18:21:45.802Z,90.40
2023-02-26T18:24:14.179Z,90.50
2023-02-26T18:26:43.622Z,90.60
2023-02-26T18:29:12.376Z,90.50
2023-02-26T18:31:41.111Z,90.50
2023-02-26T18:34:09.964Z,90.60
2023-02-26T18:36:39.714Z,90.70
2023-02-26T18:39:13.758Z,90.70
2023-02-26T18:41:42.296Z,90.80
2023-02-26T18:44:10.542Z,90.80
2023-02-26T18:46:40.955Z,91.00
2023-02-26T18:49:20.559Z,91.00
2023-02-26T18:51:48.895Z,91.40
2023-02-26T18:54:17.296Z,91.40
2023-02-26T18:56:48.749Z,91.40
2023-02-26T18:59:17.047Z,91.20
2023-02-26T19:01:45.526Z,91.00
2023-02-26T19:04:13.942Z,90.90
2023-02-26T19:06:42.154Z,90.80
2023-02-26T19:09:10.605Z,90.90
2023-02-26T19:11:39.585Z,91.00
2023-02-26T19:14:07.970Z,91.00
2023-02-26T19:16:39.539Z,91.30
2023-02-26T19:19:11.967Z,91.30
2023-02-26T19:21:42.376Z,91.30
2023-02-26T19:24:13.019Z,91.10
2023-02-26T19:26:42.616Z,91.40
2023-02-26T19:29:21.162Z,91.20
2023-02-26T19:31:49.601Z,90.90
2023-02-26T19:34:18.061Z,90.60
2023-02-26T19:36:49.807Z,90.30
2023-02-26T19:39:19.292Z,89.80
2023-02-26T19:41:53.513Z,88.90
2023-02-26T19:44:24.181Z,88.60
2023-02-26T19:46:53.662Z,88.00
2023-02-26T19:49:23.872Z,87.80
2023-02-26T19:51:53.085Z,87.90
2023-02-26T19:54:21.230Z,87.70
2023-02-26T19:56:50.234Z,87.30
2023-02-26T19:59:19.840Z,87.60
2023-02-26T20:01:50.259Z,87.00
2023-02-26T20:04:19.494Z,87.00
2023-02-26T20:06:47.452Z,86.80
2023-02-26T20:09:17.848Z,86.00
2023-02-26T20:11:46.419Z,86.20
2023-02-26T20:14:15.088Z,85.60
2023-02-26T20:16:43.328Z,85.40
2023-02-26T20:19:11.564Z,85.50
2023-02-26T20:21:40.016Z,85.40
2023-02-26T20:24:09.154Z,85.40
2023-02-26T20:26:38.896Z,85.30
2023-02-26T20:29:07.130Z,85.20
2023-02-26T20:31:35.927Z,85.30
2023-02-26T20:34:04.056Z,85.60
2023-02-26T20:36:32.749Z,86.10
2023-02-26T20:39:02.686Z,85.60
2023-02-26T20:41:32.124Z,85.70
2023-02-26T20:44:01.215Z,86.00
2023-02-26T20:46:30.406Z,86.20
2023-02-26T20:48:59.925Z,86.80
2023-02-26T20:51:28.564Z,87.80
2023-02-26T20:53:56.772Z,87.40
2023-02-26T20:56:26.488Z,87.00
2023-02-26T20:58:55.365Z,87.60
2023-02-26T21:01:23.919Z,87.30
2023-02-26T21:03:54.789Z,86.90
2023-02-26T21:06:24.342Z,87.40
2023-02-26T21:08:52.339Z,87.30
2023-02-26T21:11:20.142Z,87.20
2023-02-26T21:13:48.213Z,86.90
2023-02-26T21:16:16.034Z,87.10
2023-02-26T21:18:45.508Z,87.70
2023-02-26T21:21:14.637Z,88.90
2023-02-26T21:23:42.262Z,87.80
2023-02-26T21:26:11.114Z,87.60
2023-02-26T21:28:39.149Z,88.30
2023-02-26T21:31:06.852Z,88.90
2023-02-26T21:33:34.346Z,89.80
2023-02-26T21:36:02.211Z,89.20
2023-02-26T21:38:29.633Z,89.10
2023-02-26T21:40:56.989Z,88.10
2023-02-26T21:43:26.151Z,88.10
2023-02-26T21:45:54.178Z,88.40
2023-02-26T21:48:21.597Z,88.20
2023-02-26T21:50:52.151Z,88.60
2023-02-26T21:53:19.375Z,88.80
2023-02-26T21:55:46.662Z,88.90
2023-02-26T21:58:13.942Z,88.90
2023-02-26T22:00:41.243Z,88.70
2023-02-26T22:03:08.379Z,88.90
2023-02-26T22:05:35.473Z,89.30
2023-02-26T22:08:02.583Z,89.60
2023-02-26T22:10:29.764Z,89.70
2023-02-26T22:12:57.357Z,90.00
2023-02-26T22:15:24.429Z,90.00
2023-02-26T22:17:51.532Z,90.10
2023-02-26T22:20:18.883Z,89.90
2023-02-26T22:22:46.007Z,89.60
2023-02-26T22:25:13.664Z,89.70
2023-02-26T22:27:40.881Z,89.00
2023-02-26T22:30:09.084Z,89.10
2023-02-26T22:32:36.308Z,89.00
2023-02-26T22:35:03.897Z,89.10
2023-02-26T22:37:31.090Z,88.80
2023-02-26T22:39:58.198Z,88.80
2023-02-26T22:42:25.352Z,88.90
2023-02-26T22:44:52.427Z,89.20
2023-02-26T22:47:19.578Z,89.10
2023-02-26T22:49:46.712Z,89.50
2023-02-26T22:52:14.255Z,89.70
2023-02-26T22:54:41.538Z,89.70
2023-02-26T22:57:08.840Z,89.70
2023-02-26T22:59:35.940Z,89.90
2023-02-26T23:02:03.086Z,89.50
2023-02-26T23:04:30.235Z,89.30
2023-02-26T23:06:57.480Z,89.50
2023-02-26T23:09:24.643Z,88.10
2023-02-26T23:11:51.757Z,87.60
2023-02-26T23:14:18.994Z,87.00
2023-02-26T23:16:46.360Z,86.60
2023-02-26T23:19:13.514Z,86.50
2023-02-26T23:21:40.995Z,85.70
2023-02-26T23:24:08.136Z,85.60
2023-02-26T23:26:35.250Z,85.20
2023-02-26T23:29:02.362Z,85.00
2023-02-26T23:31:30.122Z,84.80
2023-02-26T23:33:57.495Z,84.80
2023-02-26T23:36:24.562Z,84.10
2023-02-26T23:38:51.709Z,84.50
2023-02-26T23:41:18.959Z,84.50
2023-02-26T23:43:46.108Z,84.40
2023-02-26T23:46:13.403Z,84.30
2023-02-26T23:48:40.509Z,84.20
2023-02-26T23:51:07.530Z,84.30
2023-02-26T23:53:34.649Z,84.10
2023-02-26T23:56:02.221Z,83.80
2023-02-26T23:58:31.332Z,84.40
